Aviation Digital Data Service (ADDS)

Output produced by METARs form (2316 UTC 18 August 2019)
found at http://www.aviationweather.gov/metar/data/
 
METAR text: FTTJ 182300Z 13006KT 130V190 9999 TS FEW026 FEW040CB 26/24 Q1010 NOSIG
Conditions at: FTTJ (NDJAMENA (CIV/MI, TD) observed 2300 UTC 18 August 2019
Temperature: 26.0°C (79°F)
Dewpoint: 24.0°C (75°F) [RH = 89%]
Pressure (altimeter): 29.82 inches Hg (1010.0 mb)
Winds: from the SE (130 degrees) at 7 MPH (6 knots; 3.1 m/s)
Visibility: 6 or more miles (10+ km)
Ceiling: at least 12,000 feet AGL
Clouds: few clouds at 2600 feet AGL
few clouds at 4000 feet AGL
Weather: TS  (thunderstorm)

METAR text: FTTJ 182100Z VRB01KT 9999 TS FEW026 FEW040CB 26/24 Q1009 NOSIG
Conditions at: FTTJ (NDJAMENA (CIV/MI, TD) observed 2100 UTC 18 August 2019
Temperature: 26.0°C (79°F)
Dewpoint: 24.0°C (75°F) [RH = 89%]
Pressure (altimeter): 29.79 inches Hg (1009.0 mb)
Winds: variable direction winds at 1 MPH (1 knots; 0.5 m/s)
Visibility: 6 or more miles (10+ km)
Ceiling: at least 12,000 feet AGL
Clouds: few clouds at 2600 feet AGL
few clouds at 4000 feet AGL
Weather: TS  (thunderstorm)

METAR text: FTTJ 182000Z VRB02KT 9999 TS FEW026 FEW040CB 26/24 Q1009 NOSIG
Conditions at: FTTJ (NDJAMENA (CIV/MI, TD) observed 2000 UTC 18 August 2019
Temperature: 26.0°C (79°F)
Dewpoint: 24.0°C (75°F) [RH = 89%]
Pressure (altimeter): 29.79 inches Hg (1009.0 mb)
Winds: variable direction winds at 2 MPH (2 knots; 1.0 m/s)
Visibility: 6 or more miles (10+ km)
Ceiling: at least 12,000 feet AGL
Clouds: few clouds at 2600 feet AGL
few clouds at 4000 feet AGL
Weather: TS  (thunderstorm)

METAR text: FTTJ 181900Z 28002KT 9999 TS FEW026 FEW040CB 27/23 Q1009 NOSIG
Conditions at: FTTJ (NDJAMENA (CIV/MI, TD) observed 1900 UTC 18 August 2019
Temperature: 27.0°C (81°F)
Dewpoint: 23.0°C (73°F) [RH = 79%]
Pressure (altimeter): 29.79 inches Hg (1009.0 mb)
Winds: from the W (280 degrees) at 2 MPH (2 knots; 1.0 m/s)
Visibility: 6 or more miles (10+ km)
Ceiling: at least 12,000 feet AGL
Clouds: few clouds at 2600 feet AGL
few clouds at 4000 feet AGL
Weather: TS  (thunderstorm)

METAR text: FTTJ 181800Z 23007KT 230V290 9999 TS FEW026 FEW040CB 27/24 Q1009 NOSIG
Conditions at: FTTJ (NDJAMENA (CIV/MI, TD) observed 1800 UTC 18 August 2019
Temperature: 27.0°C (81°F)
Dewpoint: 24.0°C (75°F) [RH = 84%]
Pressure (altimeter): 29.79 inches Hg (1009.0 mb)
Winds: from the SW (230 degrees) at 8 MPH (7 knots; 3.6 m/s)
Visibility: 6 or more miles (10+ km)
Ceiling: at least 12,000 feet AGL
Clouds: few clouds at 2600 feet AGL
few clouds at 4000 feet AGL
Weather: TS  (thunderstorm)

METAR text: FTTJ 181700Z 13006KT 130V220 9999 TS FEW026 FEW040CB 28/24 Q1007 NOSIG
Conditions at: FTTJ (NDJAMENA (CIV/MI, TD) observed 1700 UTC 18 August 2019
Temperature: 28.0°C (82°F)
Dewpoint: 24.0°C (75°F) [RH = 79%]
Pressure (altimeter): 29.73 inches Hg (1007.0 mb)
Winds: from the SE (130 degrees) at 7 MPH (6 knots; 3.1 m/s)
Visibility: 6 or more miles (10+ km)
Ceiling: at least 12,000 feet AGL
Clouds: few clouds at 2600 feet AGL
few clouds at 4000 feet AGL
Weather: TS  (thunderstorm)

METAR text: FTTJ 181600Z 36007KT 9999 TS SCT026 FEW040CB 29/25 Q1007 NOSIG
Conditions at: FTTJ (NDJAMENA (CIV/MI, TD) observed 1600 UTC 18 August 2019
Temperature: 29.0°C (84°F)
Dewpoint: 25.0°C (77°F) [RH = 79%]
Pressure (altimeter): 29.73 inches Hg (1007.0 mb)
Winds: from the N (360 degrees) at 8 MPH (7 knots; 3.6 m/s)
Visibility: 6 or more miles (10+ km)
Ceiling: at least 12,000 feet AGL
Clouds: scattered clouds at 2600 feet AGL
few clouds at 4000 feet AGL
Weather: TS  (thunderstorm)

METAR text: FTTJ 181500Z 29005KT 290V060 9999 SCT026 FEW040CB 31/25 Q1007 TEMPO TS
Conditions at: FTTJ (NDJAMENA (CIV/MI, TD) observed 1500 UTC 18 August 2019
Temperature: 31.0°C (88°F)
Dewpoint: 25.0°C (77°F) [RH = 71%]
Pressure (altimeter): 29.73 inches Hg (1007.0 mb)
Winds: from the WNW (290 degrees) at 6 MPH (5 knots; 2.6 m/s)
Visibility: 6 or more miles (10+ km)
Ceiling: at least 12,000 feet AGL
Clouds: scattered clouds at 2600 feet AGL
few clouds at 4000 feet AGL
Weather: no significant weather observed at this time

METAR text: FTTJ 181400Z 26004KT 260V050 9999 TS SCT026 FEW040CB 30/24 Q1008 NOSIG
Conditions at: FTTJ (NDJAMENA (CIV/MI, TD) observed 1400 UTC 18 August 2019
Temperature: 30.0°C (86°F)
Dewpoint: 24.0°C (75°F) [RH = 70%]
Pressure (altimeter): 29.76 inches Hg (1008.0 mb)
Winds: from the W (260 degrees) at 5 MPH (4 knots; 2.1 m/s)
Visibility: 6 or more miles (10+ km)
Ceiling: at least 12,000 feet AGL
Clouds: scattered clouds at 2600 feet AGL
few clouds at 4000 feet AGL
Weather: TS  (thunderstorm)

METAR text: FTTJ 181300Z 22006KT 9999 TS SCT026 FEW040CB 31/23 Q1008 TEMPO 3000 TSRA
Conditions at: FTTJ (NDJAMENA (CIV/MI, TD) observed 1300 UTC 18 August 2019
Temperature: 31.0°C (88°F)
Dewpoint: 23.0°C (73°F) [RH = 63%]
Pressure (altimeter): 29.76 inches Hg (1008.0 mb)
Winds: from the SW (220 degrees) at 7 MPH (6 knots; 3.1 m/s)
Visibility: 6 or more miles (10+ km)
Ceiling: at least 12,000 feet AGL
Clouds: scattered clouds at 2600 feet AGL
few clouds at 4000 feet AGL
Weather: TS  (thunderstorm)

METAR text: FTTJ 181200Z 23008KT 9999 SCT033 FEW040CB 33/23 Q1009 NOSIG
Conditions at: FTTJ (NDJAMENA (CIV/MI, TD) observed 1200 UTC 18 August 2019
Temperature: 33.0°C (91°F)
Dewpoint: 23.0°C (73°F) [RH = 56%]
Pressure (altimeter): 29.79 inches Hg (1009.0 mb)
Winds: from the SW (230 degrees) at 9 MPH (8 knots; 4.1 m/s)
Visibility: 6 or more miles (10+ km)
Ceiling: at least 12,000 feet AGL
Clouds: scattered clouds at 3300 feet AGL
few clouds at 4000 feet AGL
Weather: no significant weather observed at this time

METAR text: FTTJ 181100Z 20006KT 200V270 9999 SCT033 32/23 Q1011 NOSIG
Conditions at: FTTJ (NDJAMENA (CIV/MI, TD) observed 1100 UTC 18 August 2019
Temperature: 32.0°C (90°F)
Dewpoint: 23.0°C (73°F) [RH = 59%]
Pressure (altimeter): 29.85 inches Hg (1011.0 mb)
Winds: from the SSW (200 degrees) at 7 MPH (6 knots; 3.1 m/s)
Visibility: 6 or more miles (10+ km)
Ceiling: at least 12,000 feet AGL
Clouds: scattered clouds at 3300 feet AGL
Weather: no significant weather observed at this time

METAR text: FTTJ 181000Z 19006KT 190V270 9999 FEW033 31/23 Q1011 NOSIG
Conditions at: FTTJ (NDJAMENA (CIV/MI, TD) observed 1000 UTC 18 August 2019
Temperature: 31.0°C (88°F)
Dewpoint: 23.0°C (73°F) [RH = 63%]
Pressure (altimeter): 29.85 inches Hg (1011.0 mb)
Winds: from the S (190 degrees) at 7 MPH (6 knots; 3.1 m/s)
Visibility: 6 or more miles (10+ km)
Ceiling: at least 12,000 feet AGL
Clouds: few clouds at 3300 feet AGL
Weather: no significant weather observed at this time

METAR text: FTTJ 180900Z 21005KT 210V290 CAVOK 30/23 Q1011 NOSIG
Conditions at: FTTJ (NDJAMENA (CIV/MI, TD) observed 0900 UTC 18 August 2019
Temperature: 30.0°C (86°F)
Dewpoint: 23.0°C (73°F) [RH = 66%]
Pressure (altimeter): 29.85 inches Hg (1011.0 mb)
Winds: from the SSW (210 degrees) at 6 MPH (5 knots; 2.6 m/s)
Visibility: 6 or more miles (10+ km)
Ceiling: ceiling and visibility are OK
Clouds: unknown
Weather: no significant weather observed at this time

METAR text: FTTJ 180800Z 19006KT 190V250 9999 FEW020 27/23 Q1011 NOSIG
Conditions at: FTTJ (NDJAMENA (CIV/MI, TD) observed 0800 UTC 18 August 2019
Temperature: 27.0°C (81°F)
Dewpoint: 23.0°C (73°F) [RH = 79%]
Pressure (altimeter): 29.85 inches Hg (1011.0 mb)
Winds: from the S (190 degrees) at 7 MPH (6 knots; 3.1 m/s)
Visibility: 6 or more miles (10+ km)
Ceiling: at least 12,000 feet AGL
Clouds: few clouds at 2000 feet AGL
Weather: no significant weather observed at this time

METAR text: FTTJ 180700Z 19006KT 190V260 9999 FEW020 26/23 Q1010 NOSIG
Conditions at: FTTJ (NDJAMENA (CIV/MI, TD) observed 0700 UTC 18 August 2019
Temperature: 26.0°C (79°F)
Dewpoint: 23.0°C (73°F) [RH = 84%]
Pressure (altimeter): 29.82 inches Hg (1010.0 mb)
Winds: from the S (190 degrees) at 7 MPH (6 knots; 3.1 m/s)
Visibility: 6 or more miles (10+ km)
Ceiling: at least 12,000 feet AGL
Clouds: few clouds at 2000 feet AGL
Weather: no significant weather observed at this time

METAR text: FTTJ 180600Z 19006KT 9999 FEW020 25/23 Q1010 NOSIG
Conditions at: FTTJ (NDJAMENA (CIV/MI, TD) observed 0600 UTC 18 August 2019
Temperature: 25.0°C (77°F)
Dewpoint: 23.0°C (73°F) [RH = 89%]
Pressure (altimeter): 29.82 inches Hg (1010.0 mb)
Winds: from the S (190 degrees) at 7 MPH (6 knots; 3.1 m/s)
Visibility: 6 or more miles (10+ km)
Ceiling: at least 12,000 feet AGL
Clouds: few clouds at 2000 feet AGL
Weather: no significant weather observed at this time

METAR text: FTTJ 180500Z 24004KT 9999 FEW020 24/22 Q1009 NOSIG
Conditions at: FTTJ (NDJAMENA (CIV/MI, TD) observed 0500 UTC 18 August 2019
Temperature: 24.0°C (75°F)
Dewpoint: 22.0°C (72°F) [RH = 89%]
Pressure (altimeter): 29.79 inches Hg (1009.0 mb)
Winds: from the WSW (240 degrees) at 5 MPH (4 knots; 2.1 m/s)
Visibility: 6 or more miles (10+ km)
Ceiling: at least 12,000 feet AGL
Clouds: few clouds at 2000 feet AGL
Weather: no significant weather observed at this time

METAR text: FTTJ 180400Z 23009KT 9999 FEW020 25/22 Q1009 NOSIG
Conditions at: FTTJ (NDJAMENA (CIV/MI, TD) observed 0400 UTC 18 August 2019
Temperature: 25.0°C (77°F)
Dewpoint: 22.0°C (72°F) [RH = 83%]
Pressure (altimeter): 29.79 inches Hg (1009.0 mb)
Winds: from the SW (230 degrees) at 10 MPH (9 knots; 4.6 m/s)
Visibility: 6 or more miles (10+ km)
Ceiling: at least 12,000 feet AGL
Clouds: few clouds at 2000 feet AGL
Weather: no significant weather observed at this time

METAR text: FTTJ 180300Z 21007KT 9999 FEW020 25/23 Q1009 NOSIG
Conditions at: FTTJ (NDJAMENA (CIV/MI, TD) observed 0300 UTC 18 August 2019
Temperature: 25.0°C (77°F)
Dewpoint: 23.0°C (73°F) [RH = 89%]
Pressure (altimeter): 29.79 inches Hg (1009.0 mb)
Winds: from the SSW (210 degrees) at 8 MPH (7 knots; 3.6 m/s)
Visibility: 6 or more miles (10+ km)
Ceiling: at least 12,000 feet AGL
Clouds: few clouds at 2000 feet AGL
Weather: no significant weather observed at this time

METAR text: FTTJ 180100Z 20009KT 9999 FEW020 25/23 Q1009 NOSIG
Conditions at: FTTJ (NDJAMENA (CIV/MI, TD) observed 0100 UTC 18 August 2019
Temperature: 25.0°C (77°F)
Dewpoint: 23.0°C (73°F) [RH = 89%]
Pressure (altimeter): 29.79 inches Hg (1009.0 mb)
Winds: from the SSW (200 degrees) at 10 MPH (9 knots; 4.6 m/s)
Visibility: 6 or more miles (10+ km)
Ceiling: at least 12,000 feet AGL
Clouds: few clouds at 2000 feet AGL
Weather: no significant weather observed at this time

METAR text: FTTJ 180000Z 21006KT 9999 FEW020 25/24 Q1010 NOSIG
Conditions at: FTTJ (NDJAMENA (CIV/MI, TD) observed 0000 UTC 18 August 2019
Temperature: 25.0°C (77°F)
Dewpoint: 24.0°C (75°F) [RH = 94%]
Pressure (altimeter): 29.82 inches Hg (1010.0 mb)
Winds: from the SSW (210 degrees) at 7 MPH (6 knots; 3.1 m/s)
Visibility: 6 or more miles (10+ km)
Ceiling: at least 12,000 feet AGL
Clouds: few clouds at 2000 feet AGL
Weather: no significant weather observed at this time

METAR text: FTTJ 172300Z 20005KT 9999 FEW020 26/24 Q1010 NOSIG
Conditions at: FTTJ (NDJAMENA (CIV/MI, TD) observed 2300 UTC 17 August 2019
Temperature: 26.0°C (79°F)
Dewpoint: 24.0°C (75°F) [RH = 89%]
Pressure (altimeter): 29.82 inches Hg (1010.0 mb)
Winds: from the SSW (200 degrees) at 6 MPH (5 knots; 2.6 m/s)
Visibility: 6 or more miles (10+ km)
Ceiling: at least 12,000 feet AGL
Clouds: few clouds at 2000 feet AGL
Weather: no significant weather observed at this time

METAR text: FTTJ 172200Z 20004KT 9999 FEW020 27/24 Q1011 NOSIG
Conditions at: FTTJ (NDJAMENA (CIV/MI, TD) observed 2200 UTC 17 August 2019
Temperature: 27.0°C (81°F)
Dewpoint: 24.0°C (75°F) [RH = 84%]
Pressure (altimeter): 29.85 inches Hg (1011.0 mb)
Winds: from the SSW (200 degrees) at 5 MPH (4 knots; 2.1 m/s)
Visibility: 6 or more miles (10+ km)
Ceiling: at least 12,000 feet AGL
Clouds: few clouds at 2000 feet AGL
Weather: no significant weather observed at this time

METAR text: FTTJ 172100Z 20005KT 9999 FEW020 FEW040CB 27/24 Q1010 NOSIG
Conditions at: FTTJ (NDJAMENA (CIV/MI, TD) observed 2100 UTC 17 August 2019
Temperature: 27.0°C (81°F)
Dewpoint: 24.0°C (75°F) [RH = 84%]
Pressure (altimeter): 29.82 inches Hg (1010.0 mb)
Winds: from the SSW (200 degrees) at 6 MPH (5 knots; 2.6 m/s)
Visibility: 6 or more miles (10+ km)
Ceiling: at least 12,000 feet AGL
Clouds: few clouds at 2000 feet AGL
few clouds at 4000 feet AGL
Weather: no significant weather observed at this time

METAR text: FTTJ 172000Z VRB02KT 9999 FEW020 FEW040CB 28/24 Q1010 NOSIG
Conditions at: FTTJ (NDJAMENA (CIV/MI, TD) observed 2000 UTC 17 August 2019
Temperature: 28.0°C (82°F)
Dewpoint: 24.0°C (75°F) [RH = 79%]
Pressure (altimeter): 29.82 inches Hg (1010.0 mb)
Winds: variable direction winds at 2 MPH (2 knots; 1.0 m/s)
Visibility: 6 or more miles (10+ km)
Ceiling: at least 12,000 feet AGL
Clouds: few clouds at 2000 feet AGL
few clouds at 4000 feet AGL
Weather: no significant weather observed at this time

METAR text: FTTJ 171900Z 21004KT 210V290 9999 FEW040CB 28/23 Q1009 NOSIG
Conditions at: FTTJ (NDJAMENA (CIV/MI, TD) observed 1900 UTC 17 August 2019
Temperature: 28.0°C (82°F)
Dewpoint: 23.0°C (73°F) [RH = 74%]
Pressure (altimeter): 29.79 inches Hg (1009.0 mb)
Winds: from the SSW (210 degrees) at 5 MPH (4 knots; 2.1 m/s)
Visibility: 6 or more miles (10+ km)
Ceiling: at least 12,000 feet AGL
Clouds: few clouds at 4000 feet AGL
Weather: no significant weather observed at this time

METAR text: FTTJ 171800Z 26006KT 9999 FEW033 29/23 Q1008 NOSIG
Conditions at: FTTJ (NDJAMENA (CIV/MI, TD) observed 1800 UTC 17 August 2019
Temperature: 29.0°C (84°F)
Dewpoint: 23.0°C (73°F) [RH = 70%]
Pressure (altimeter): 29.76 inches Hg (1008.0 mb)
Winds: from the W (260 degrees) at 7 MPH (6 knots; 3.1 m/s)
Visibility: 6 or more miles (10+ km)
Ceiling: at least 12,000 feet AGL
Clouds: few clouds at 3300 feet AGL
Weather: no significant weather observed at this time

METAR text: FTTJ 171700Z 27003KT 9999 FEW033 FEW040CB 30/23 Q1008 NOSIG
Conditions at: FTTJ (NDJAMENA (CIV/MI, TD) observed 1700 UTC 17 August 2019
Temperature: 30.0°C (86°F)
Dewpoint: 23.0°C (73°F) [RH = 66%]
Pressure (altimeter): 29.76 inches Hg (1008.0 mb)
Winds: from the W (270 degrees) at 3 MPH (3 knots; 1.5 m/s)
Visibility: 6 or more miles (10+ km)
Ceiling: at least 12,000 feet AGL
Clouds: few clouds at 3300 feet AGL
few clouds at 4000 feet AGL
Weather: no significant weather observed at this time

METAR text: FTTJ 171600Z 25004KT 250V360 9999 FEW033 FEW040CB 31/23 Q1008 NOSIG
Conditions at: FTTJ (NDJAMENA (CIV/MI, TD) observed 1600 UTC 17 August 2019
Temperature: 31.0°C (88°F)
Dewpoint: 23.0°C (73°F) [RH = 63%]
Pressure (altimeter): 29.76 inches Hg (1008.0 mb)
Winds: from the WSW (250 degrees) at 5 MPH (4 knots; 2.1 m/s)
Visibility: 6 or more miles (10+ km)
Ceiling: at least 12,000 feet AGL
Clouds: few clouds at 3300 feet AGL
few clouds at 4000 feet AGL
Weather: no significant weather observed at this time

METAR text: FTTJ 171500Z VRB03KT 9999 SCT033 FEW046CB 31/22 Q1008 NOSIG
Conditions at: FTTJ (NDJAMENA (CIV/MI, TD) observed 1500 UTC 17 August 2019
Temperature: 31.0°C (88°F)
Dewpoint: 22.0°C (72°F) [RH = 59%]
Pressure (altimeter): 29.76 inches Hg (1008.0 mb)
Winds: variable direction winds at 3 MPH (3 knots; 1.5 m/s)
Visibility: 6 or more miles (10+ km)
Ceiling: at least 12,000 feet AGL
Clouds: scattered clouds at 3300 feet AGL
few clouds at 4600 feet AGL
Weather: no significant weather observed at this time

METAR text: FTTJ 171400Z VRB03KT 9999 SCT033 FEW046CB 31/23 Q1009 TEMPO TSRA
Conditions at: FTTJ (NDJAMENA (CIV/MI, TD) observed 1400 UTC 17 August 2019
Temperature: 31.0°C (88°F)
Dewpoint: 23.0°C (73°F) [RH = 63%]
Pressure (altimeter): 29.79 inches Hg (1009.0 mb)
Winds: variable direction winds at 3 MPH (3 knots; 1.5 m/s)
Visibility: 6 or more miles (10+ km)
Ceiling: at least 12,000 feet AGL
Clouds: scattered clouds at 3300 feet AGL
few clouds at 4600 feet AGL
Weather: no significant weather observed at this time

METAR text: FTTJ 171300Z 22006KT 9999 SCT033 FEW046CB 32/23 Q1010 NOSIG
Conditions at: FTTJ (NDJAMENA (CIV/MI, TD) observed 1300 UTC 17 August 2019
Temperature: 32.0°C (90°F)
Dewpoint: 23.0°C (73°F) [RH = 59%]
Pressure (altimeter): 29.82 inches Hg (1010.0 mb)
Winds: from the SW (220 degrees) at 7 MPH (6 knots; 3.1 m/s)
Visibility: 6 or more miles (10+ km)
Ceiling: at least 12,000 feet AGL
Clouds: scattered clouds at 3300 feet AGL
few clouds at 4600 feet AGL
Weather: no significant weather observed at this time

METAR text: FTTJ 171200Z 20006KT 200V290 9999 SCT033 FEW040TCU 31/23 Q1011 NOSIG
Conditions at: FTTJ (NDJAMENA (CIV/MI, TD) observed 1200 UTC 17 August 2019
Temperature: 31.0°C (88°F)
Dewpoint: 23.0°C (73°F) [RH = 63%]
Pressure (altimeter): 29.85 inches Hg (1011.0 mb)
Winds: from the SSW (200 degrees) at 7 MPH (6 knots; 3.1 m/s)
Visibility: 6 or more miles (10+ km)
Ceiling: at least 12,000 feet AGL
Clouds: scattered clouds at 3300 feet AGL
few clouds at 4000 feet AGL
Weather: no significant weather observed at this time

Forecast for: FTTJ (NDJAMENA (CIV/MI, TD)
Text: TAF FTTJ 181700Z 1818/1924 20004KT 9999 TS FEW020 FEW040CB
Forecast period: 1800 to 2200 UTC 18 August 2019
Forecast type: FROM: standard forecast or significant change
Winds: from the SSW (200 degrees) at 5 MPH (4 knots; 2.1 m/s)
Visibility: 6 or more miles 10+ km)
Ceiling: at least 12,000 feet AGL
Clouds: few clouds at 2000 feet AGL
few clouds at 4000 feet AGL
Weather: TS  (thunderstorm)
Text: PROB30
Forecast period: 1900 to 2200 UTC 18 August 2019
Forecast type: TEMPORARY: The following changes expected for less than half the time period
Visibility: 2.49 miles (4.01 km)
Ceiling: unknown
Clouds: missing
Weather: TSRA  (rain associated with thunderstorm(s))
Text: TEMPO 1819/1822 4000 TSRA
Forecast period: 2200 UTC 18 August 2019 to 0000 UTC 20 August 2019
Forecast type: BECOMING: Conditions expected to become as follows by 0000 UTC 19 August 2019
Winds: from the SSW (200 degrees) at 5 MPH (4 knots; 2.1 m/s)
Visibility: 6 or more miles 10+ km)
Ceiling: at least 12,000 feet AGL
Clouds: few clouds at 2000 feet AGL
few clouds at 4000 feet AGL
Weather: NSW  (no significant weather)
Text: BECMG 1822/1824 NSW
Forecast period: 0400 to 0800 UTC 19 August 2019
Forecast type: TEMPORARY: The following changes expected for less than half the time period
Visibility: 2.49 miles (4.01 km)
Ceiling: unknown
Clouds: missing
Weather: TSRA  (rain associated with thunderstorm(s))
Text: PROB30
Forecast period: 1200 to 1800 UTC 19 August 2019
Forecast type: TEMPORARY: The following changes expected for less than half the time period
Visibility: 2.49 miles (4.01 km)
Ceiling: unknown
Clouds: missing
Weather: TSRA  (rain associated with thunderstorm(s))